Time;durP1;ratioP1;P1;durP2;ratioP2;P2;SDS_P1;SDS_P2;PMS_P1;PMS_P2;Temp;Humidity;BMP_temperature;BMP_pressure;BME280_temperature;BME280_humidity;BME280_pressure;Samples;Min_cycle;Max_cycle;Signal;HPM_P1;HPM_P2
2022/12/25 00:01:59;;;;;;;5.45;2.53;;;20.70;66.60;;;;;;5006745;28;87630;-80
2022/12/25 00:04:25;;;;;;;3.20;2.15;;;20.70;66.70;;;;;;5006282;27;87343;-80
2022/12/25 00:06:50;;;;;;;2.75;1.90;;;20.70;66.80;;;;;;5005956;27;88514;-81
2022/12/25 00:09:16;;;;;;;5.32;2.20;;;20.70;66.80;;;;;;5006045;27;88105;-80
2022/12/25 00:11:41;;;;;;;3.08;1.77;;;20.70;67.00;;;;;;5006185;27;86996;-81
2022/12/25 00:14:07;;;;;;;4.53;2.05;;;20.60;66.70;;;;;;5007286;28;86420;-81
2022/12/25 00:16:33;;;;;;;5.18;2.15;;;20.70;66.90;;;;;;5005672;27;88518;-80
2022/12/25 00:19:00;;;;;;;4.05;1.85;;;20.60;66.90;;;;;;5005314;27;87912;-81
2022/12/25 00:21:26;;;;;;;4.07;1.90;;;20.60;67.00;;;;;;5003603;27;88470;-80
2022/12/25 00:23:57;;;;;;;3.65;1.90;;;20.60;67.00;;;;;;5004858;27;87456;-80
2022/12/25 00:26:23;;;;;;;5.40;2.45;;;20.60;67.00;;;;;;5005651;27;87748;-80
2022/12/25 00:28:53;;;;;;;6.50;2.47;;;20.60;66.90;;;;;;5006106;28;87777;-80
2022/12/25 00:31:20;;;;;;;3.65;2.30;;;20.60;67.00;;;;;;5005677;27;88099;-81
2022/12/25 00:33:47;;;;;;;3.45;2.00;;;20.50;66.90;;;;;;5005866;27;87445;-80
2022/12/25 00:36:14;;;;;;;5.30;2.50;;;20.50;67.00;;;;;;5005774;27;87566;-80
2022/12/25 00:38:40;;;;;;;5.20;2.25;;;20.50;67.10;;;;;;5005224;27;88409;-80
2022/12/25 00:41:12;;;;;;;5.15;2.10;;;20.50;67.90;;;;;;5006492;28;87337;-80
2022/12/25 00:43:40;;;;;;;4.40;2.20;;;20.50;67.00;;;;;;5004887;27;87440;-81
2022/12/25 00:46:07;;;;;;;4.07;2.53;;;20.50;67.10;;;;;;5005002;27;89001;-80
2022/12/25 00:48:34;;;;;;;2.78;1.90;;;20.50;67.20;;;;;;5005476;27;89203;-81
2022/12/25 00:51:02;;;;;;;2.97;1.80;;;20.50;67.10;;;;;;5004580;27;87825;-80
2022/12/25 00:53:28;;;;;;;4.43;2.00;;;20.50;67.10;;;;;;5004883;27;89276;-80
2022/12/25 00:55:57;;;;;;;3.67;2.03;;;20.50;67.10;;;;;;5006336;28;87940;-80
2022/12/25 00:58:24;;;;;;;3.30;1.80;;;20.50;67.10;;;;;;5005659;27;87903;-80
2022/12/25 01:00:50;;;;;;;5.20;2.53;;;20.40;66.90;;;;;;5005639;27;87552;-81
2022/12/25 01:03:16;;;;;;;4.90;2.22;;;20.40;67.00;;;;;;5005415;27;87462;-80
2022/12/25 01:05:43;;;;;;;2.15;1.60;;;20.40;67.10;;;;;;5005307;27;87995;-80
2022/12/25 01:08:09;;;;;;;4.30;1.92;;;20.40;67.20;;;;;;5005648;28;88299;-81
2022/12/25 01:10:34;;;;;;;2.75;2.08;;;20.40;67.10;;;;;;5005011;27;88553;-80
2022/12/25 01:13:00;;;;;;;3.55;2.20;;;20.40;67.00;;;;;;5005162;27;87343;-80
2022/12/25 01:15:26;;;;;;;4.85;1.90;;;20.40;67.10;;;;;;5005567;27;88091;-80
2022/12/25 01:17:51;;;;;;;3.63;1.98;;;20.40;67.00;;;;;;5004978;27;88881;-80
2022/12/25 01:20:17;;;;;;;3.75;2.10;;;20.40;66.90;;;;;;5005104;28;86938;-80
2022/12/25 01:22:44;;;;;;;2.67;1.90;;;20.30;67.00;;;;;;5004488;27;87119;-80
2022/12/25 01:25:11;;;;;;;3.78;1.90;;;20.30;66.90;;;;;;5004618;27;87592;-80
2022/12/25 01:27:39;;;;;;;2.65;1.60;;;20.30;67.00;;;;;;5005148;27;88558;-80
2022/12/25 01:30:05;;;;;;;3.15;1.90;;;20.30;66.90;;;;;;5004429;27;87375;-80
2022/12/25 01:32:31;;;;;;;2.95;1.73;;;20.30;67.10;;;;;;5004975;27;87320;-80
2022/12/25 01:34:57;;;;;;;2.72;1.63;;;20.30;67.70;;;;;;5005273;28;89668;-80
2022/12/25 01:37:24;;;;;;;1.98;1.50;;;20.30;67.00;;;;;;5003902;27;88705;-80
2022/12/25 01:39:50;;;;;;;4.40;1.80;;;20.30;67.00;;;;;;5005202;27;87534;-80
2022/12/25 01:42:22;;;;;;;3.47;1.75;;;20.30;67.00;;;;;;5004454;27;87526;-80
2022/12/25 01:44:48;;;;;;;3.40;2.03;;;20.30;66.90;;;;;;5004442;27;87702;-81
2022/12/25 01:47:16;;;;;;;2.55;1.42;;;20.30;67.10;;;;;;5005163;28;87908;-80
2022/12/25 01:49:45;;;;;;;3.67;2.17;;;20.20;66.90;;;;;;5004480;27;87320;-80
2022/12/25 01:52:21;;;;;;;4.47;1.87;;;20.20;66.90;;;;;;5004616;27;86932;-80
2022/12/25 01:54:57;;;;;;;3.58;1.95;;;20.20;66.90;;;;;;5004572;27;88036;-80
2022/12/25 01:57:26;;;;;;;3.90;1.85;;;20.20;67.00;;;;;;5003673;27;87465;-80
2022/12/25 01:59:52;;;;;;;2.83;1.80;;;20.20;66.90;;;;;;5003910;27;87895;-80
2022/12/25 02:02:18;;;;;;;3.53;1.75;;;20.20;66.90;;;;;;5004220;28;87216;-80
2022/12/25 02:04:58;;;;;;;3.38;1.65;;;20.20;67.00;;;;;;5003758;27;90283;-80
2022/12/25 02:07:27;;;;;;;3.22;1.70;;;20.20;67.10;;;;;;5004572;27;87966;-80
2022/12/25 02:09:53;;;;;;;2.60;1.85;;;20.20;67.10;;;;;;5004474;27;87507;-80
2022/12/25 02:12:27;;;;;;;2.40;1.38;;;20.10;67.10;;;;;;5003915;27;86983;-81
2022/12/25 02:14:56;;;;;;;3.10;1.63;;;20.20;67.00;;;;;;5004194;27;88516;-81
2022/12/25 02:17:40;;;;;;;2.67;2.00;;;20.10;67.10;;;;;;5004344;27;87287;-80
2022/12/25 02:20:15;;;;;;;3.80;1.90;;;20.10;67.00;;;;;;5004613;28;87615;-80
2022/12/25 02:23:22;;;;;;;3.20;1.75;;;20.10;67.20;;;;;;5003659;27;87940;-80
2022/12/25 02:26:06;;;;;;;3.15;1.90;;;20.10;67.00;;;;;;4971402;28;94401;-80
2022/12/25 02:28:36;;;;;;;2.80;1.83;;;20.10;67.10;;;;;;4967814;28;89219;-80
2022/12/25 02:31:43;;;;;;;3.05;1.67;;;20.10;67.20;;;;;;4973756;28;88054;-80
2022/12/25 02:34:29;;;;;;;2.97;1.70;;;20.10;67.00;;;;;;4930594;28;88089;-80
2022/12/25 02:37:11;;;;;;;2.45;1.55;;;20.10;67.20;;;;;;4925057;28;88587;-80
2022/12/25 02:39:57;;;;;;;2.35;1.40;;;20.10;67.10;;;;;;4927331;28;87666;-80
2022/12/25 03:08:20;;;;;;;4.50;1.98;;;20.00;66.80;;;;;;4882315;28;90360;-80
2022/12/25 03:13:42;;;;;;;2.13;1.40;;;20.00;66.90;;;;;;4922729;28;86595;-80
2022/12/25 03:18:54;;;;;;;1.75;1.30;;;20.00;66.90;;;;;;4924797;28;87170;-80
2022/12/25 03:26:55;;;;;;;2.78;1.77;;;19.90;66.70;;;;;;5006297;27;87547;-80
2022/12/25 03:32:28;;;;;;;2.72;1.33;;;19.90;66.70;;;;;;4985996;28;96982;-80
2022/12/25 03:35:22;;;;;;;2.22;1.42;;;19.90;66.70;;;;;;4987345;28;89205;-80
2022/12/25 03:45:02;;;;;;;2.75;1.75;;;19.90;66.60;;;;;;4955025;28;92658;-80
2022/12/25 04:37:34;;;;;;;2.85;1.60;;;19.70;66.50;;;;;;4952055;28;86957;-80
2022/12/25 04:39:59;;;;;;;1.60;1.20;;;19.70;66.40;;;;;;4952781;28;88097;-81
2022/12/25 04:42:25;;;;;;;2.30;1.60;;;19.70;66.50;;;;;;4963435;28;87940;-80
2022/12/25 04:44:51;;;;;;;2.42;1.52;;;19.70;66.50;;;;;;5005164;27;88462;-80
2022/12/25 04:47:16;;;;;;;1.67;1.35;;;19.70;66.40;;;;;;5005452;28;87820;-80
2022/12/25 04:49:42;;;;;;;2.45;1.42;;;19.70;66.60;;;;;;5005361;27;88633;-80
2022/12/25 04:52:08;;;;;;;1.52;1.23;;;19.70;66.60;;;;;;5005498;27;88343;-80
2022/12/25 04:54:33;;;;;;;2.25;1.40;;;19.70;67.20;;;;;;5004401;27;87599;-80
2022/12/25 04:56:59;;;;;;;3.20;1.45;;;19.70;66.40;;;;;;5005863;27;87477;-80
2022/12/25 04:59:24;;;;;;;3.58;1.48;;;19.70;66.40;;;;;;5005507;27;88651;-80
2022/12/25 05:01:50;;;;;;;2.38;1.50;;;19.60;66.50;;;;;;5006406;28;87788;-80
2022/12/25 05:04:15;;;;;;;2.78;1.35;;;19.70;66.40;;;;;;5005308;27;86892;-80
2022/12/25 05:06:41;;;;;;;2.17;1.33;;;19.70;66.50;;;;;;5004963;28;95216;-80
2022/12/25 05:09:07;;;;;;;2.30;1.60;;;19.70;66.50;;;;;;5004827;27;90246;-80
2022/12/25 05:11:32;;;;;;;2.10;1.35;;;19.60;66.30;;;;;;5005253;27;88206;-80
2022/12/25 05:13:58;;;;;;;3.08;1.38;;;19.70;66.40;;;;;;5006373;28;87427;-80
2022/12/25 05:16:25;;;;;;;2.42;1.58;;;19.60;66.30;;;;;;5005368;27;87666;-81
2022/12/25 05:18:51;;;;;;;2.63;1.50;;;19.60;66.40;;;;;;5004161;27;88076;-80
2022/12/25 05:21:17;;;;;;;3.92;1.20;;;19.60;66.40;;;;;;5005164;27;87577;-80
2022/12/25 05:23:47;;;;;;;3.00;1.58;;;19.60;66.40;;;;;;5005044;27;87566;-80
2022/12/25 05:26:14;;;;;;;2.78;1.38;;;19.60;66.40;;;;;;5006197;28;87249;-80
2022/12/25 05:28:41;;;;;;;2.15;1.30;;;19.60;66.40;;;;;;5005310;27;87900;-80
2022/12/25 05:31:07;;;;;;;2.15;1.10;;;19.60;66.50;;;;;;5005201;27;88320;-80
2022/12/25 05:33:32;;;;;;;1.10;1.00;;;19.60;66.40;;;;;;5005291;27;88167;-80
2022/12/25 05:36:02;;;;;;;2.55;1.60;;;19.60;66.40;;;;;;5004548;27;87442;-80
2022/12/25 05:38:28;;;;;;;1.95;1.30;;;19.60;66.30;;;;;;5004644;27;87640;-80
2022/12/25 05:40:53;;;;;;;1.52;1.10;;;19.60;66.30;;;;;;5005553;28;87819;-80
2022/12/25 05:43:19;;;;;;;2.45;1.40;;;19.60;66.50;;;;;;5005139;27;87468;-80
2022/12/25 05:45:45;;;;;;;2.42;1.45;;;19.60;66.40;;;;;;5005219;27;87815;-80
2022/12/25 05:48:10;;;;;;;2.15;1.42;;;19.60;66.40;;;;;;5004512;27;88192;-80
2022/12/25 05:50:37;;;;;;;1.80;1.30;;;19.60;66.40;;;;;;5004901;27;87712;-80
2022/12/25 05:53:11;;;;;;;1.73;1.10;;;19.50;66.40;;;;;;5005582;28;87438;-80
2022/12/25 05:55:38;;;;;;;2.50;1.27;;;19.50;66.40;;;;;;5004688;27;87356;-80
2022/12/25 05:58:05;;;;;;;1.48;1.10;;;19.50;66.60;;;;;;5004157;27;89588;-80
2022/12/25 06:00:31;;;;;;;2.33;1.30;;;19.50;66.50;;;;;;5004876;27;87305;-80
2022/12/25 06:02:56;;;;;;;1.60;1.25;;;19.50;66.40;;;;;;5004727;27;87492;-80
2022/12/25 06:05:22;;;;;;;1.50;1.10;;;19.50;66.50;;;;;;5004866;27;87489;-80
2022/12/25 06:07:47;;;;;;;1.50;1.00;;;19.50;66.40;;;;;;5004029;28;87986;-80
2022/12/25 06:10:13;;;;;;;1.52;1.00;;;19.50;66.30;;;;;;5004365;27;87698;-80
2022/12/25 06:12:39;;;;;;;2.38;1.33;;;19.50;66.30;;;;;;5005117;27;87582;-80
2022/12/25 06:15:05;;;;;;;1.65;1.02;;;19.50;66.30;;;;;;5004984;27;87663;-81
2022/12/25 06:17:30;;;;;;;1.63;1.20;;;19.50;66.30;;;;;;5003704;27;88674;-80
2022/12/25 06:19:56;;;;;;;2.25;1.40;;;19.50;66.40;;;;;;5004612;28;87757;-81
2022/12/25 06:22:22;;;;;;;2.20;1.08;;;19.70;66.30;;;;;;5003924;27;88883;-81
2022/12/25 06:24:47;;;;;;;3.03;1.30;;;19.70;65.70;;;;;;5003929;27;87568;-80
2022/12/25 06:27:14;;;;;;;3.55;1.20;;;19.80;65.70;;;;;;5004738;27;87583;-80
2022/12/25 06:29:39;;;;;;;2.80;1.23;;;19.90;65.60;;;;;;5004244;27;87966;-81
2022/12/25 06:32:05;;;;;;;2.17;1.15;;;20.00;64.60;;;;;;5005222;28;87008;-80
2022/12/25 06:34:31;;;;;;;1.88;1.38;;;20.00;64.40;;;;;;5004075;27;87716;-80
2022/12/25 06:36:56;;;;;;;6.45;1.90;;;20.10;63.80;;;;;;5003705;27;87830;-80
2022/12/25 06:39:24;;;;;;;4.07;1.70;;;20.20;63.60;;;;;;5004621;27;87348;-80
2022/12/25 06:41:49;;;;;;;4.10;1.30;;;20.30;63.70;;;;;;5004249;27;86963;-80
2022/12/25 06:44:15;;;;;;;4.30;1.58;;;20.50;63.40;;;;;;5004890;28;87533;-81
2022/12/25 06:46:41;;;;;;;4.55;1.67;;;20.50;63.10;;;;;;5003569;27;89052;-81
2022/12/25 06:49:06;;;;;;;4.18;1.52;;;20.70;63.10;;;;;;5003032;27;92692;-81
2022/12/25 06:51:32;;;;;;;3.50;1.63;;;20.70;63.00;;;;;;5004962;27;87637;-81
2022/12/25 06:54:02;;;;;;;2.92;1.50;;;20.60;62.90;;;;;;5004079;27;88099;-81
2022/12/25 06:56:28;;;;;;;4.25;1.55;;;20.60;63.00;;;;;;5004158;27;88521;-81
2022/12/25 06:59:04;;;;;;;4.25;1.80;;;20.60;63.20;;;;;;5004997;28;87908;-81
2022/12/25 07:01:32;;;;;;;3.25;1.45;;;20.50;63.20;;;;;;5004411;27;87353;-82
2022/12/25 07:04:14;;;;;;;4.80;1.60;;;20.50;63.30;;;;;;5004733;27;86738;-82
2022/12/25 07:06:40;;;;;;;4.47;1.73;;;20.50;63.40;;;;;;5004006;27;89109;-82
2022/12/25 07:09:05;;;;;;;5.50;1.63;;;20.40;63.30;;;;;;5004028;27;87786;-81
2022/12/25 07:11:31;;;;;;;4.55;1.67;;;20.40;63.40;;;;;;5003296;27;88301;-82
2022/12/25 07:13:56;;;;;;;3.45;1.83;;;20.40;63.50;;;;;;5004494;28;88070;-82
2022/12/25 07:16:22;;;;;;;2.97;1.52;;;20.40;63.40;;;;;;5002572;27;91115;-82
2022/12/25 07:18:48;;;;;;;3.17;1.50;;;20.40;63.70;;;;;;5003850;27;87979;-82
2022/12/25 07:21:16;;;;;;;4.47;1.77;;;20.40;63.60;;;;;;4983754;27;87175;-82
2022/12/25 07:23:43;;;;;;;4.82;1.83;;;20.40;63.40;;;;;;4983871;27;87993;-82
2022/12/25 07:26:10;;;;;;;3.45;1.60;;;20.40;63.60;;;;;;4985222;28;88867;-81
2022/12/25 07:28:35;;;;;;;5.53;1.70;;;20.40;63.70;;;;;;4984727;28;88451;-82
2022/12/25 07:31:03;;;;;;;4.55;1.75;;;20.30;63.80;;;;;;4984198;28;87424;-81
2022/12/25 07:33:30;;;;;;;5.65;1.90;;;20.30;63.60;;;;;;4975338;28;90725;-82
2022/12/25 07:35:55;;;;;;;3.15;1.40;;;20.30;63.70;;;;;;4983159;27;88664;-82
2022/12/25 07:38:21;;;;;;;4.75;1.90;;;20.30;63.80;;;;;;4982657;28;90115;-82
2022/12/25 07:40:47;;;;;;;6.28;1.90;;;20.30;63.90;;;;;;4983211;28;87036;-81
2022/12/25 07:43:12;;;;;;;42.40;7.80;;;20.30;64.00;;;;;;4983691;27;87351;-82
2022/12/25 07:45:38;;;;;;;20.65;5.10;;;20.30;63.10;;;;;;4984278;28;89302;-83
2022/12/25 07:48:04;;;;;;;17.73;3.70;;;20.30;63.40;;;;;;4984031;28;87906;-82
2022/12/25 07:50:30;;;;;;;14.00;3.63;;;20.30;63.60;;;;;;4983127;27;87493;-82
2022/12/25 07:52:55;;;;;;;19.30;5.18;;;20.30;63.90;;;;;;4985311;28;86887;-83
2022/12/25 07:55:21;;;;;;;15.75;4.72;;;20.50;61.80;;;;;;4983919;28;88480;-83
2022/12/25 07:57:47;;;;;;;17.73;3.92;;;20.70;60.20;;;;;;4983871;28;88047;-82
2022/12/25 08:00:13;;;;;;;14.40;4.07;;;20.80;61.10;;;;;;4994187;27;87994;-82
2022/12/25 08:02:39;;;;;;;20.70;4.10;;;20.70;61.40;;;;;;4987408;27;87309;-82
2022/12/25 08:05:05;;;;;;;16.55;4.22;;;20.60;61.30;;;;;;4987642;28;88350;-82
2022/12/25 08:07:31;;;;;;;19.15;5.20;;;20.60;62.20;;;;;;4988198;27;87806;-82
2022/12/25 08:09:57;;;;;;;19.73;4.55;;;20.60;63.20;;;;;;4988322;27;87494;-83
2022/12/25 08:12:22;;;;;;;20.55;6.22;;;20.50;63.00;;;;;;4988836;27;87529;-84
2022/12/25 08:14:48;;;;;;;22.55;5.85;;;20.50;63.30;;;;;;4989455;27;88108;-84
2022/12/25 08:17:13;;;;;;;21.33;5.32;;;20.60;63.00;;;;;;4991931;28;87850;-84
2022/12/25 08:19:39;;;;;;;19.63;5.80;;;20.50;63.90;;;;;;4994329;28;87073;-84
2022/12/25 08:22:05;;;;;;;25.75;6.22;;;20.40;64.00;;;;;;5008798;27;87273;-84
2022/12/25 08:24:30;;;;;;;21.75;5.93;;;20.30;64.70;;;;;;5008625;27;88983;-86
2022/12/25 08:26:56;;;;;;;27.77;6.85;;;20.30;65.30;;;;;;5008190;27;88257;-84
2022/12/25 08:29:21;;;;;;;22.38;5.60;;;20.30;65.30;;;;;;5007621;27;87203;-83
2022/12/25 08:31:47;;;;;;;23.80;6.78;;;20.30;65.20;;;;;;5009438;28;87692;-84
2022/12/25 08:34:13;;;;;;;27.60;6.38;;;20.30;66.00;;;;;;5009095;27;88129;-87
2022/12/25 08:36:40;;;;;;;30.17;6.90;;;20.30;66.00;;;;;;5006920;27;87995;-83
2022/12/25 08:39:06;;;;;;;28.27;7.15;;;20.40;65.30;;;;;;5006460;27;87661;-83
2022/12/25 08:41:32;;;;;;;20.42;6.45;;;20.40;65.90;;;;;;4998424;27;89776;-83
2022/12/25 08:43:57;;;;;;;22.33;6.25;;;20.40;65.00;;;;;;5007627;28;89271;-84
2022/12/25 08:46:23;;;;;;;26.67;6.30;;;20.30;65.60;;;;;;5006136;27;88523;-83
2022/12/25 08:48:49;;;;;;;22.70;6.25;;;20.30;65.20;;;;;;5005902;27;88527;-83
2022/12/25 08:51:17;;;;;;;19.70;6.65;;;20.30;63.50;;;;;;5005677;27;87428;-83
2022/12/25 08:53:44;;;;;;;20.33;6.33;;;20.20;62.30;;;;;;4996688;27;87954;-83
2022/12/25 08:56:10;;;;;;;22.90;6.80;;;20.20;61.90;;;;;;5007316;28;87471;-84
2022/12/25 08:58:36;;;;;;;23.08;6.40;;;20.20;63.30;;;;;;5006364;27;87615;-83
2022/12/25 09:01:02;;;;;;;22.95;6.95;;;20.30;64.40;;;;;;5007500;27;89278;-84
2022/12/25 09:03:30;;;;;;;25.42;6.22;;;20.30;63.70;;;;;;5006479;27;88445;-84
2022/12/25 09:06:05;;;;;;;22.50;6.57;;;20.50;64.10;;;;;;5007123;27;87998;-83
2022/12/25 09:08:30;;;;;;;28.85;7.18;;;20.60;64.40;;;;;;5005891;27;87392;-84
2022/12/25 09:11:01;;;;;;;21.85;6.53;;;20.70;64.20;;;;;;5005909;28;87341;-84
2022/12/25 09:13:26;;;;;;;21.85;6.35;;;20.80;64.40;;;;;;5004143;27;88501;-83
2022/12/25 09:15:52;;;;;;;29.65;6.35;;;20.80;64.30;;;;;;5006466;27;89163;-84
2022/12/25 09:18:18;;;;;;;20.17;6.35;;;20.80;64.10;;;;;;5005477;27;87050;-84
2022/12/25 09:20:43;;;;;;;20.33;5.85;;;20.80;64.10;;;;;;5007228;27;87956;-84
2022/12/25 09:23:09;;;;;;;22.98;6.53;;;20.90;64.70;;;;;;5008006;28;89314;-84
2022/12/25 09:25:34;;;;;;;24.73;6.38;;;20.80;65.10;;;;;;5006833;27;88734;-83
2022/12/25 09:28:00;;;;;;;20.52;6.65;;;20.80;65.40;;;;;;5008059;27;87638;-84
2022/12/25 09:30:25;;;;;;;16.05;5.72;;;20.80;65.10;;;;;;4980878;27;87205;-84
2022/12/25 09:32:51;;;;;;;24.08;6.32;;;20.80;64.60;;;;;;5010553;27;88584;-85
2022/12/25 09:35:17;;;;;;;18.42;5.63;;;20.70;64.80;;;;;;5007477;28;87708;-83
2022/12/25 09:37:43;;;;;;;19.65;6.15;;;20.70;65.10;;;;;;5006493;27;87905;-84
2022/12/25 09:40:20;;;;;;;17.45;6.30;;;20.70;64.80;;;;;;5006661;27;87384;-85
2022/12/25 09:42:48;;;;;;;13.75;5.43;;;20.60;65.20;;;;;;5006366;27;88647;-84
2022/12/25 09:45:36;;;;;;;22.38;5.82;;;20.50;65.30;;;;;;5007116;27;88864;-82
2022/12/25 09:48:02;;;;;;;15.02;5.03;;;20.40;65.40;;;;;;5006866;27;88153;-83
2022/12/25 09:50:37;;;;;;;13.82;4.95;;;20.40;64.10;;;;;;5006740;27;88487;-82
2022/12/25 09:53:13;;;;;;;14.65;5.70;;;20.40;62.70;;;;;;5007069;28;87587;-83
2022/12/25 09:55:55;;;;;;;13.35;4.95;;;20.30;61.90;;;;;;5007993;27;88354;-84
2022/12/25 09:58:21;;;;;;;17.70;5.93;;;20.40;62.30;;;;;;5006983;27;87362;-83
2022/12/25 10:01:09;;;;;;;89.43;18.25;;;20.40;61.00;;;;;;5006565;27;87474;-84
2022/12/25 10:04:04;;;;;;;116.90;24.20;;;20.30;61.10;;;;;;5003613;28;93021;-85
2022/12/25 10:06:48;;;;;;;75.85;18.20;;;20.30;61.50;;;;;;4983372;28;89312;-84
2022/12/25 10:09:24;;;;;;;65.78;16.33;;;20.30;60.70;;;;;;4984289;28;87508;-84
2022/12/25 10:12:09;;;;;;;67.43;17.35;;;20.40;60.30;;;;;;4983247;28;87501;-84
2022/12/25 10:14:45;;;;;;;54.25;14.55;;;20.40;60.00;;;;;;4983498;28;87803;-83
2022/12/25 10:17:41;;;;;;;57.33;13.80;;;20.40;60.30;;;;;;4983676;28;87920;-83
2022/12/25 10:20:34;;;;;;;51.30;13.00;;;20.50;59.60;;;;;;4982110;28;87597;-83
2022/12/25 10:23:02;;;;;;;37.90;10.85;;;20.40;59.40;;;;;;4982432;28;91385;-83
2022/12/25 10:25:29;;;;;;;48.87;11.37;;;20.40;59.60;;;;;;4982598;28;88612;-83
2022/12/25 10:28:01;;;;;;;43.80;11.07;;;20.40;59.60;;;;;;4982646;28;88607;-83
2022/12/25 10:30:28;;;;;;;37.90;9.90;;;20.30;59.40;;;;;;4981392;28;88122;-82
2022/12/25 10:32:56;;;;;;;39.42;10.40;;;20.30;59.40;;;;;;4983219;28;89140;-84
2022/12/25 10:35:25;;;;;;;38.13;9.68;;;20.40;59.60;;;;;;4982934;28;87370;-81
2022/12/25 10:38:05;;;;;;;26.13;8.63;;;20.40;59.50;;;;;;4983466;28;87882;-83
2022/12/25 10:40:33;;;;;;;33.13;9.85;;;20.40;58.90;;;;;;4982979;28;87135;-84
2022/12/25 10:43:21;;;;;;;41.53;10.45;;;20.40;59.60;;;;;;4989896;28;87607;-82
2022/12/25 10:45:48;;;;;;;34.72;9.20;;;20.30;59.70;;;;;;5005601;27;88118;-84
2022/12/25 10:48:34;;;;;;;28.35;9.07;;;20.40;59.70;;;;;;5006885;27;87564;-83
2022/12/25 10:51:06;;;;;;;30.83;9.13;;;20.40;60.30;;;;;;5006299;27;87626;-83
2022/12/25 10:53:41;;;;;;;29.55;9.18;;;20.40;60.10;;;;;;5005844;27;86946;-83
2022/12/25 10:56:14;;;;;;;34.90;8.60;;;20.30;59.80;;;;;;5006003;28;89946;-84
2022/12/25 10:58:40;;;;;;;26.42;8.02;;;20.40;60.00;;;;;;5005009;27;89804;-84
2022/12/25 11:01:06;;;;;;;25.63;7.30;;;20.40;59.90;;;;;;5006123;27;87578;-84
2022/12/25 11:03:36;;;;;;;25.15;7.60;;;20.40;60.00;;;;;;5006887;27;87600;-84
2022/12/25 11:06:02;;;;;;;21.10;6.68;;;20.40;60.00;;;;;;5006073;27;87700;-84
2022/12/25 11:08:30;;;;;;;17.92;6.88;;;20.40;59.80;;;;;;5005972;27;89036;-83
2022/12/25 11:10:57;;;;;;;21.23;7.35;;;20.40;59.80;;;;;;5006855;28;87694;-84
2022/12/25 11:13:26;;;;;;;22.33;6.25;;;20.40;60.20;;;;;;5007743;27;87492;-84
2022/12/25 11:16:24;;;;;;;19.55;6.22;;;20.30;59.70;;;;;;5007256;27;88508;-84
2022/12/25 11:18:53;;;;;;;17.45;6.57;;;20.40;60.10;;;;;;5006358;27;88082;-85
2022/12/25 11:21:24;;;;;;;18.73;5.97;;;20.40;60.30;;;;;;5006647;27;88306;-84
2022/12/25 11:24:05;;;;;;;17.25;6.10;;;20.30;59.80;;;;;;5006675;27;86972;-84
2022/12/25 11:26:45;;;;;;;21.50;6.07;;;20.30;59.90;;;;;;5006506;27;88645;-84
2022/12/25 11:29:36;;;;;;;18.63;5.13;;;20.30;59.80;;;;;;5007110;28;87306;-84
2022/12/25 11:32:10;;;;;;;13.95;5.13;;;20.30;59.50;;;;;;5006541;28;87508;-82
2022/12/25 11:34:41;;;;;;;16.63;5.10;;;20.40;59.50;;;;;;5006775;27;87227;-84
2022/12/25 11:37:19;;;;;;;13.05;5.22;;;20.40;59.80;;;;;;5008684;27;87569;-82
2022/12/25 11:39:45;;;;;;;24.52;5.78;;;20.40;59.40;;;;;;5009681;27;86575;-85
2022/12/25 11:42:23;;;;;;;33.72;8.35;;;20.30;59.40;;;;;;5009830;27;86961;-84
2022/12/25 11:45:11;;;;;;;52.97;12.77;;;20.40;59.80;;;;;;5009360;27;87624;-84
2022/12/25 11:47:37;;;;;;;45.77;12.80;;;20.30;59.60;;;;;;5007256;27;89694;-84
2022/12/25 11:50:24;;;;;;;36.85;8.38;;;20.30;59.40;;;;;;5010316;28;88252;-84
2022/12/25 11:52:51;;;;;;;31.15;8.20;;;20.40;59.30;;;;;;5009428;28;88246;-86
2022/12/25 11:55:17;;;;;;;29.02;9.23;;;20.30;59.10;;;;;;5010050;27;87595;-86
2022/12/25 11:57:47;;;;;;;31.08;9.13;;;20.30;59.70;;;;;;5010851;27;87809;-85
2022/12/25 12:00:15;;;;;;;19.13;6.43;;;20.30;59.80;;;;;;5009408;27;88200;-84
2022/12/25 12:02:53;;;;;;;30.90;9.32;;;20.30;59.90;;;;;;5009627;27;87474;-85
2022/12/25 12:05:27;;;;;;;27.00;8.10;;;20.40;60.00;;;;;;5009820;28;86888;-84
2022/12/25 12:07:59;;;;;;;50.28;15.75;;;20.30;59.90;;;;;;5009760;28;92854;-84
2022/12/25 12:10:31;;;;;;;77.55;20.65;;;20.30;59.60;;;;;;5009453;27;88137;-83
2022/12/25 12:13:42;;;;;;;91.72;23.83;;;20.40;59.80;;;;;;5008077;27;88341;-84
2022/12/25 12:16:08;;;;;;;120.63;29.90;;;20.40;59.70;;;;;;5004965;28;87684;-83
2022/12/25 12:18:35;;;;;;;94.90;23.02;;;20.40;59.80;;;;;;5003413;28;88552;-82
2022/12/25 12:21:22;;;;;;;113.50;28.88;;;20.50;60.10;;;;;;5002957;28;88252;-82
2022/12/25 12:24:04;;;;;;;101.85;27.15;;;20.50;60.10;;;;;;5004719;28;87853;-81
2022/12/25 12:26:36;;;;;;;89.70;24.90;;;20.50;60.40;;;;;;5004774;28;87621;-82
2022/12/25 12:29:04;;;;;;;93.75;26.73;;;20.50;60.20;;;;;;5005181;28;88410;-83
2022/12/25 12:31:46;;;;;;;86.40;24.27;;;20.50;59.60;;;;;;5004161;28;90483;-81
2022/12/25 12:34:24;;;;;;;85.68;24.45;;;20.40;59.10;;;;;;4983485;28;87101;-83
2022/12/25 12:36:56;;;;;;;81.07;24.15;;;20.30;59.50;;;;;;4983689;28;88031;-82
2022/12/25 12:39:32;;;;;;;74.78;22.65;;;20.30;59.50;;;;;;4983040;28;89157;-82
2022/12/25 12:41:57;;;;;;;72.65;21.55;;;20.30;59.90;;;;;;4983163;28;88291;-82
2022/12/25 12:44:30;;;;;;;62.65;19.40;;;20.40;60.00;;;;;;4984427;28;87365;-83
2022/12/25 12:46:56;;;;;;;59.72;19.20;;;20.40;59.40;;;;;;4983993;28;87934;-84
2022/12/25 12:49:25;;;;;;;59.75;16.67;;;20.30;59.40;;;;;;4983043;28;87705;-83
2022/12/25 12:52:22;;;;;;;54.30;17.33;;;20.30;59.10;;;;;;4982872;28;87634;-84
2022/12/25 12:55:01;;;;;;;54.05;14.98;;;20.20;59.30;;;;;;4983023;28;88104;-84
2022/12/25 12:57:31;;;;;;;38.33;13.68;;;20.30;59.10;;;;;;4982994;28;87386;-86
2022/12/25 12:59:58;;;;;;;49.35;13.82;;;20.40;59.10;;;;;;4967489;28;92297;-83
2022/12/25 13:03:01;;;;;;;37.65;12.65;;;20.30;59.00;;;;;;4989609;28;87865;-83
2022/12/25 13:05:51;;;;;;;34.33;12.05;;;20.40;60.30;;;;;;4984739;28;87889;-83
2022/12/25 13:08:28;;;;;;;33.65;11.48;;;20.40;59.30;;;;;;5007998;28;87489;-83
2022/12/25 13:13:24;;;;;;;45.35;12.70;;;20.40;59.20;;;;;;4987927;28;87924;-83
2022/12/25 13:15:51;;;;;;;35.60;11.95;;;20.40;59.40;;;;;;5005779;28;87171;-83
2022/12/25 13:18:17;;;;;;;29.15;10.02;;;20.30;59.10;;;;;;5005197;28;87432;-84
2022/12/25 13:20:59;;;;;;;38.90;11.40;;;20.20;59.20;;;;;;4998362;28;89223;-84
2022/12/25 13:23:25;;;;;;;40.83;11.77;;;20.20;60.00;;;;;;4989288;28;90679;-83
2022/12/25 13:25:57;;;;;;;32.55;11.55;;;20.20;60.40;;;;;;5007076;28;87855;-84
2022/12/25 13:28:31;;;;;;;28.38;11.05;;;20.20;61.40;;;;;;4964921;28;88859;-83
2022/12/25 13:31:16;;;;;;;34.88;12.23;;;20.30;61.70;;;;;;4963212;28;89203;-84
2022/12/25 13:33:54;;;;;;;32.85;10.85;;;20.40;62.20;;;;;;4965106;28;88051;-83
2022/12/25 13:36:20;;;;;;;31.90;11.35;;;20.30;61.90;;;;;;4965153;28;88530;-83
2022/12/25 13:38:50;;;;;;;33.40;10.75;;;20.30;61.60;;;;;;4964898;28;87538;-84
2022/12/25 13:44:13;;;;;;;34.97;10.60;;;20.30;61.40;;;;;;4945557;28;90347;-82
2022/12/25 13:46:39;;;;;;;40.58;11.18;;;20.40;61.80;;;;;;4944922;28;88285;-82
2022/12/25 13:49:19;;;;;;;32.95;11.35;;;20.40;62.20;;;;;;4945016;28;87143;-84
2022/12/25 13:51:45;;;;;;;29.45;10.10;;;20.40;62.20;;;;;;4945157;28;88719;-82
2022/12/25 13:54:13;;;;;;;28.33;8.98;;;20.40;62.40;;;;;;4944680;28;88194;-84
2022/12/25 13:56:54;;;;;;;28.73;9.63;;;20.30;63.10;;;;;;4923541;28;88705;-83
2022/12/25 13:59:22;;;;;;;27.10;8.80;;;20.40;62.70;;;;;;4946316;28;87354;-82
2022/12/25 14:01:50;;;;;;;27.63;9.20;;;20.40;62.50;;;;;;4945746;28;87378;-83
2022/12/25 14:04:19;;;;;;;27.95;10.18;;;20.50;63.10;;;;;;4945381;28;88257;-83
2022/12/25 14:06:45;;;;;;;;;;;20.50;62.80;;;;;;4979764;28;87295;-82
2022/12/25 14:09:11;;;;;;;28.38;9.50;;;20.60;62.50;;;;;;4986819;27;88207;-83
2022/12/25 14:11:40;;;;;;;23.92;8.95;;;20.50;62.80;;;;;;4985622;28;88489;-81
2022/12/25 14:14:19;;;;;;;22.98;8.60;;;20.50;62.20;;;;;;4987219;28;87542;-82
2022/12/25 14:16:49;;;;;;;24.17;9.23;;;20.60;62.40;;;;;;4986082;28;87576;-81
2022/12/25 14:19:25;;;;;;;23.63;8.80;;;20.60;62.40;;;;;;4984938;28;87902;-81
2022/12/25 14:22:00;;;;;;;25.70;8.43;;;20.70;62.50;;;;;;4984110;27;89597;-81
2022/12/25 14:24:28;;;;;;;28.05;9.10;;;20.70;62.30;;;;;;4993745;27;88384;-83
2022/12/25 14:27:14;;;;;;;22.23;8.35;;;20.80;62.10;;;;;;4990038;27;87743;-84
2022/12/25 14:29:43;;;;;;;21.77;8.40;;;20.90;62.10;;;;;;4986450;28;86980;-84
2022/12/25 14:32:20;;;;;;;22.35;7.90;;;21.10;61.90;;;;;;4986144;28;90101;-84
2022/12/25 14:34:50;;;;;;;22.17;7.50;;;21.20;62.10;;;;;;4986321;28;87925;-83
2022/12/25 14:37:18;;;;;;;;;;;21.30;62.00;;;;;;4988178;28;88093;-84
2022/12/25 14:39:46;;;;;;;22.77;8.55;;;21.50;61.40;;;;;;4989330;27;86805;-84